createdAt,value
2019-02-12T00:00:11.513Z,3.89
2019-02-12T00:02:39.952Z,3.88
2019-02-12T00:05:08.505Z,3.89
2019-02-12T00:07:36.960Z,3.86
2019-02-12T00:10:06.699Z,3.84
2019-02-12T00:12:35.152Z,3.83
2019-02-12T00:15:04.392Z,3.83
2019-02-12T00:17:32.839Z,3.85
2019-02-12T00:20:01.253Z,3.84
2019-02-12T00:22:29.699Z,3.86
2019-02-12T00:24:58.124Z,3.86
2019-02-12T00:27:26.604Z,3.86
2019-02-12T00:29:55.007Z,3.87
2019-02-12T00:32:23.424Z,3.88
2019-02-12T00:34:51.951Z,3.87
2019-02-12T00:37:20.378Z,3.87
2019-02-12T00:39:48.853Z,3.87
2019-02-12T00:42:17.284Z,3.87
2019-02-12T00:44:45.746Z,3.86
2019-02-12T00:47:14.153Z,3.84
2019-02-12T00:49:42.767Z,3.82
2019-02-12T00:52:11.109Z,3.79
2019-02-12T00:54:39.628Z,3.78
2019-02-12T00:57:08.038Z,3.76
2019-02-12T00:59:36.516Z,3.76
2019-02-12T01:02:04.990Z,3.75
2019-02-12T01:04:33.395Z,3.75
2019-02-12T01:07:01.811Z,3.72
2019-02-12T01:09:30.343Z,3.69
2019-02-12T01:11:58.856Z,3.67
2019-02-12T01:14:27.306Z,3.66
2019-02-12T01:16:55.744Z,3.66
2019-02-12T01:19:24.220Z,3.64
2019-02-12T01:21:52.654Z,3.61
2019-02-12T01:24:21.269Z,3.58
2019-02-12T01:26:49.790Z,3.58
2019-02-12T01:29:18.223Z,3.58
2019-02-12T01:31:46.663Z,3.55
2019-02-12T01:34:15.094Z,3.53
2019-02-12T01:36:43.567Z,3.52
2019-02-12T01:39:12.444Z,3.52
2019-02-12T01:41:40.919Z,3.50
2019-02-12T01:44:09.442Z,3.51
2019-02-12T01:46:37.955Z,3.50
2019-02-12T01:49:06.311Z,3.49
2019-02-12T01:51:35.380Z,3.49
2019-02-12T01:54:03.923Z,3.47
2019-02-12T01:56:32.354Z,3.49
2019-02-12T01:59:00.805Z,3.46
2019-02-12T02:01:29.240Z,3.45
2019-02-12T02:03:57.688Z,3.45
2019-02-12T02:06:26.216Z,3.46
2019-02-12T02:08:54.648Z,3.45
2019-02-12T02:11:23.122Z,3.48
2019-02-12T02:13:51.529Z,3.49
2019-02-12T02:16:20.006Z,3.53
2019-02-12T02:18:48.476Z,3.59
2019-02-12T02:21:16.979Z,3.62
2019-02-12T02:23:45.431Z,3.66
2019-02-12T02:26:13.861Z,3.71
2019-02-12T02:28:42.300Z,3.71
2019-02-12T02:31:10.787Z,3.68
2019-02-12T02:33:39.232Z,3.62
2019-02-12T02:36:07.644Z,3.59
2019-02-12T02:38:36.228Z,3.58
2019-02-12T02:41:04.682Z,3.57
2019-02-12T02:43:33.113Z,3.54
2019-02-12T02:46:01.542Z,3.54
2019-02-12T02:48:30.004Z,3.52
2019-02-12T02:50:58.422Z,3.50
2019-02-12T02:53:26.872Z,3.48
2019-02-12T02:55:56.820Z,3.44
2019-02-12T02:58:25.303Z,3.46
2019-02-12T03:00:53.718Z,3.41
2019-02-12T03:03:22.215Z,3.39
2019-02-12T03:05:50.785Z,3.38
2019-02-12T03:08:19.507Z,3.36
2019-02-12T03:10:48.157Z,3.35
2019-02-12T03:13:16.611Z,3.35
2019-02-12T03:15:45.116Z,3.33
2019-02-12T03:18:13.529Z,3.33
2019-02-12T03:20:42.090Z,3.34
2019-02-12T03:23:10.524Z,3.33
2019-02-12T03:25:38.957Z,3.32
2019-02-12T03:28:07.457Z,3.31
2019-02-12T03:30:35.913Z,3.28
2019-02-12T03:33:04.403Z,3.29
2019-02-12T03:35:32.901Z,3.29
2019-02-12T03:38:01.389Z,3.28
2019-02-12T03:40:29.826Z,3.28
2019-02-12T03:42:58.234Z,3.30
2019-02-12T03:45:26.656Z,3.29
2019-02-12T03:47:55.082Z,3.28
2019-02-12T03:50:23.599Z,3.28
2019-02-12T03:52:52.047Z,3.25
2019-02-12T03:55:20.503Z,3.23
2019-02-12T03:57:49.148Z,3.25
2019-02-12T04:00:17.743Z,3.27
2019-02-12T04:03:03.973Z,3.28
2019-02-12T04:05:32.780Z,3.28
2019-02-12T04:08:01.437Z,3.28
2019-02-12T04:10:29.967Z,3.25
2019-02-12T04:12:58.560Z,3.25
2019-02-12T04:15:27.050Z,3.24
2019-02-12T04:17:55.507Z,3.24
2019-02-12T04:20:23.914Z,3.22
2019-02-12T04:22:52.391Z,3.22
2019-02-12T04:25:20.902Z,3.22
2019-02-12T04:27:49.438Z,3.20
2019-02-12T04:30:17.924Z,3.19
2019-02-12T04:32:46.402Z,3.16
2019-02-12T04:35:14.845Z,3.13
2019-02-12T04:37:43.278Z,3.10
2019-02-12T04:40:12.155Z,3.09
2019-02-12T04:42:40.674Z,3.10
2019-02-12T04:45:12.050Z,3.13
2019-02-12T04:47:40.586Z,3.13
2019-02-12T04:50:14.033Z,3.15
2019-02-12T04:52:42.446Z,3.15
2019-02-12T04:55:12.204Z,3.15
2019-02-12T04:57:40.659Z,3.16
2019-02-12T05:00:12.190Z,3.14
2019-02-12T05:02:40.625Z,3.12
2019-02-12T05:05:10.410Z,3.07
2019-02-12T05:07:38.906Z,3.04
2019-02-12T05:10:10.302Z,3.04
2019-02-12T05:12:38.771Z,3.04
2019-02-12T05:15:09.237Z,3.03
2019-02-12T05:17:37.806Z,3.04
2019-02-12T05:20:12.146Z,3.05
2019-02-12T05:22:43.690Z,3.07
2019-02-12T05:25:10.874Z,3.04
2019-02-12T05:27:39.323Z,3.03
2019-02-12T05:30:12.967Z,3.04
2019-02-12T05:32:43.001Z,3.06
2019-02-12T05:35:11.507Z,3.06
2019-02-12T05:37:39.986Z,3.08
2019-02-12T05:40:10.651Z,3.07
2019-02-12T05:42:39.055Z,3.06
2019-02-12T05:45:12.767Z,3.07
2019-02-12T05:47:41.328Z,3.05
2019-02-12T05:50:12.705Z,3.07
2019-02-12T05:52:41.116Z,3.07
2019-02-12T05:55:09.769Z,3.04
2019-02-12T05:57:38.181Z,3.01
2019-02-12T06:00:09.688Z,3.05
2019-02-12T06:02:38.111Z,3.04
2019-02-12T06:05:07.412Z,3.04
2019-02-12T06:07:35.871Z,3.03
2019-02-12T06:10:06.608Z,3.04
2019-02-12T06:12:35.030Z,3.06
2019-02-12T06:15:04.061Z,3.07
2019-02-12T06:17:32.478Z,3.06
2019-02-12T06:20:01.095Z,3.03
2019-02-12T06:22:29.531Z,3.00
2019-02-12T06:24:58.006Z,2.96
2019-02-12T06:27:26.824Z,2.94
2019-02-12T06:29:55.269Z,2.92
2019-02-12T06:32:23.744Z,2.92
2019-02-12T06:34:52.167Z,2.91
2019-02-12T06:37:20.680Z,2.95
2019-02-12T06:39:49.166Z,2.91
2019-02-12T06:42:17.723Z,2.87
2019-02-12T06:44:46.137Z,2.85
2019-02-12T06:47:14.592Z,2.84
2019-02-12T06:49:43.001Z,2.84
2019-02-12T06:52:11.441Z,2.83
2019-02-12T06:54:39.867Z,2.83
2019-02-12T06:57:08.318Z,2.86
2019-02-12T06:59:36.943Z,2.89
2019-02-12T07:02:41.943Z,2.92
2019-02-12T07:05:10.331Z,2.98
2019-02-12T07:07:50.754Z,3.01
2019-02-12T07:10:19.243Z,3.02
2019-02-12T07:12:56.818Z,3.01
2019-02-12T07:15:26.481Z,3.01
2019-02-12T07:18:03.986Z,3.06
2019-02-12T07:20:59.519Z,3.05
2019-02-12T07:23:40.114Z,3.07
2019-02-12T07:26:23.619Z,3.12
2019-02-12T07:29:09.885Z,3.18
2019-02-12T07:32:00.736Z,3.17
2019-02-12T07:34:48.670Z,3.23
2019-02-12T07:37:47.282Z,3.28
2019-02-12T07:40:21.475Z,3.32
2019-02-12T07:42:58.773Z,3.32
2019-02-12T07:45:46.867Z,3.33
2019-02-12T07:48:36.535Z,3.39
2019-02-12T07:51:29.190Z,3.44
2019-02-12T07:54:15.947Z,3.49
2019-02-12T07:57:09.874Z,3.54
2019-02-12T07:59:47.417Z,3.57
2019-02-12T08:02:21.629Z,3.60
2019-02-12T08:05:08.272Z,3.62
2019-02-12T08:08:05.218Z,3.66
2019-02-12T08:10:46.553Z,3.66
2019-02-12T08:13:37.618Z,3.69
2019-02-12T08:16:27.935Z,3.73
2019-02-12T08:19:04.812Z,3.80
2019-02-12T08:21:45.432Z,3.84
2019-02-12T08:24:38.012Z,3.88
2019-02-12T08:27:09.489Z,3.92
2019-02-12T08:29:47.107Z,3.95
2019-02-12T08:32:21.585Z,3.99
2019-02-12T08:35:01.939Z,4.06
2019-02-12T08:37:48.081Z,4.09
2019-02-12T08:40:36.085Z,4.10
2019-02-12T08:43:07.571Z,4.13
2019-02-12T08:45:45.344Z,4.17
2019-02-12T08:48:25.292Z,4.23
2019-02-12T08:51:05.591Z,4.25
2019-02-12T08:53:50.748Z,4.27
2019-02-12T08:56:44.635Z,4.30
2019-02-12T08:59:28.131Z,4.28
2019-02-12T09:02:19.397Z,4.20
2019-02-12T09:05:09.037Z,4.20
2019-02-12T09:07:43.074Z,4.20
2019-02-12T09:10:43.111Z,4.25
2019-02-12T09:13:26.383Z,4.25
2019-02-12T09:16:30.855Z,4.26
2019-02-12T09:19:14.529Z,4.28
2019-02-12T09:21:52.193Z,4.32
2019-02-12T09:24:29.467Z,4.36
2019-02-12T09:27:12.950Z,4.35
2019-02-12T09:29:50.201Z,4.35
2019-02-12T09:32:48.998Z,4.33
2019-02-12T09:35:35.356Z,4.32
2019-02-12T09:38:15.330Z,4.36
2019-02-12T09:40:49.774Z,4.39
2019-02-12T09:43:24.227Z,4.45
2019-02-12T09:46:10.410Z,4.52
2019-02-12T09:48:44.898Z,4.60
2019-02-12T09:51:28.133Z,4.64
2019-02-12T09:54:14.579Z,4.71
2019-02-12T09:57:03.854Z,4.73
2019-02-12T09:59:47.025Z,4.74
2019-02-12T10:02:42.215Z,4.71
2019-02-12T10:05:31.895Z,4.68
2019-02-12T10:08:19.755Z,4.68
2019-02-12T10:11:13.731Z,4.72
2019-02-12T10:14:00.429Z,4.75
2019-02-12T10:16:37.249Z,4.79
2019-02-12T10:19:23.459Z,4.81
2019-02-12T10:22:06.807Z,4.89
2019-02-12T10:24:53.036Z,4.94
2019-02-12T10:27:30.136Z,4.99
2019-02-12T10:30:07.549Z,5.05
2019-02-12T10:32:34.819Z,5.12
2019-02-12T10:35:03.354Z,5.14
2019-02-12T10:37:31.811Z,5.16
2019-02-12T10:40:00.367Z,5.17
2019-02-12T10:42:28.760Z,5.18
2019-02-12T10:44:57.229Z,5.23
2019-02-12T10:47:25.656Z,5.30
2019-02-12T10:49:54.201Z,5.37
2019-02-12T10:52:22.604Z,5.45
2019-02-12T10:54:51.087Z,5.55
2019-02-12T10:57:19.794Z,5.62
2019-02-12T10:59:48.255Z,5.69
2019-02-12T11:02:16.761Z,5.69
2019-02-12T11:04:45.303Z,5.75
2019-02-12T11:07:13.774Z,5.80
2019-02-12T11:09:42.253Z,5.86
2019-02-12T11:12:10.816Z,5.90
2019-02-12T11:14:39.247Z,5.94
2019-02-12T11:17:07.837Z,5.92
2019-02-12T11:19:36.261Z,5.96
2019-02-12T11:22:08.894Z,5.98
2019-02-12T11:24:37.335Z,6.03
2019-02-12T11:27:05.943Z,6.10
2019-02-12T11:29:34.420Z,6.21
2019-02-12T11:32:03.005Z,6.24
2019-02-12T11:34:31.430Z,6.25
2019-02-12T11:36:59.887Z,6.31
2019-02-12T11:39:28.300Z,6.38
2019-02-12T11:41:56.741Z,6.45
2019-02-12T11:44:25.167Z,6.46
2019-02-12T11:46:53.889Z,6.51
2019-02-12T11:49:22.371Z,6.58
2019-02-12T11:51:50.891Z,6.70
2019-02-12T11:54:19.344Z,6.76
2019-02-12T11:56:47.889Z,6.82
2019-02-12T11:59:16.314Z,6.90
2019-02-12T12:01:44.769Z,6.95
2019-02-12T12:04:13.211Z,6.94
2019-02-12T12:06:41.652Z,6.99
2019-02-12T12:09:14.609Z,7.06
2019-02-12T12:11:43.029Z,7.14
2019-02-12T12:14:11.694Z,7.24
2019-02-12T12:16:40.144Z,7.30
2019-02-12T12:19:08.596Z,7.40
2019-02-12T12:21:37.037Z,7.46
2019-02-12T12:24:05.544Z,7.56
2019-02-12T12:26:33.981Z,7.57
2019-02-12T12:29:02.456Z,7.62
2019-02-12T12:31:30.946Z,7.88
2019-02-12T12:33:59.402Z,8.44
2019-02-12T12:36:27.949Z,8.85
2019-02-12T12:38:56.369Z,9.12
2019-02-12T12:41:24.855Z,9.18
2019-02-12T12:43:53.459Z,9.25
2019-02-12T12:46:21.908Z,9.65
2019-02-12T12:48:50.397Z,9.91
2019-02-12T12:51:18.912Z,9.89
2019-02-12T12:53:47.349Z,10.23
2019-02-12T12:56:15.798Z,10.23
2019-02-12T12:58:44.279Z,10.38
2019-02-12T13:01:12.730Z,10.62
2019-02-12T13:03:41.380Z,10.80
2019-02-12T13:06:11.600Z,10.90
2019-02-12T13:08:40.238Z,10.80
2019-02-12T13:11:08.687Z,10.71
2019-02-12T13:13:37.110Z,10.56
2019-02-12T13:16:05.571Z,10.59
2019-02-12T13:18:33.992Z,10.56
2019-02-12T13:21:02.486Z,10.59
2019-02-12T13:23:30.924Z,10.49
2019-02-12T13:25:59.444Z,10.48
2019-02-12T13:28:27.915Z,10.64
2019-02-12T13:30:56.369Z,10.75
2019-02-12T13:33:26.522Z,10.80
2019-02-12T13:35:55.152Z,10.59
2019-02-12T13:38:23.656Z,10.55
2019-02-12T13:40:52.197Z,10.51
2019-02-12T13:43:20.625Z,10.51
2019-02-12T13:45:49.131Z,10.47
2019-02-12T13:48:17.588Z,10.48
2019-02-12T13:50:46.120Z,10.57
2019-02-12T13:53:14.649Z,10.57
2019-02-12T13:55:43.149Z,10.90
2019-02-12T13:58:11.604Z,10.98
2019-02-12T14:00:40.104Z,10.95
2019-02-12T14:03:08.612Z,10.85
2019-02-12T14:05:37.076Z,10.68
2019-02-12T14:08:05.598Z,10.56
2019-02-12T14:10:34.061Z,10.53
2019-02-12T14:13:02.541Z,10.53
2019-02-12T14:15:31.109Z,10.75
2019-02-12T14:18:01.077Z,11.06
2019-02-12T14:20:29.572Z,11.23
2019-02-12T14:22:58.178Z,11.10
2019-02-12T14:25:26.624Z,10.92
2019-02-12T14:27:55.162Z,10.81
2019-02-12T14:30:23.876Z,10.85
2019-02-12T14:32:52.354Z,10.84
2019-02-12T14:35:20.904Z,11.00
2019-02-12T14:37:49.381Z,11.42
2019-02-12T14:40:17.881Z,11.08
2019-02-12T14:42:46.342Z,10.76
2019-02-12T14:45:19.258Z,10.39
2019-02-12T14:47:47.794Z,10.39
2019-02-12T14:50:20.460Z,10.31
2019-02-12T14:52:48.974Z,10.23
2019-02-12T14:55:17.511Z,10.12
2019-02-12T14:57:46.059Z,10.07
2019-02-12T15:00:18.683Z,10.01
2019-02-12T15:02:47.171Z,9.95
2019-02-12T15:05:15.993Z,9.92
2019-02-12T15:07:44.548Z,9.90
2019-02-12T15:10:14.113Z,9.87
2019-02-12T15:12:42.604Z,9.84
2019-02-12T15:15:11.504Z,9.83
2019-02-12T15:17:39.995Z,9.81
2019-02-12T15:20:12.174Z,9.76
2019-02-12T15:22:40.631Z,9.68
2019-02-12T15:25:12.857Z,9.69
2019-02-12T15:27:41.482Z,9.62
2019-02-12T15:30:15.668Z,9.56
2019-02-12T15:32:44.203Z,9.49
2019-02-12T15:35:13.045Z,9.40
2019-02-12T15:37:41.560Z,9.34
2019-02-12T15:40:18.624Z,9.29
2019-02-12T15:42:47.137Z,9.29
2019-02-12T15:45:20.488Z,9.23
2019-02-12T15:47:48.925Z,9.20
2019-02-12T15:50:17.358Z,9.20
2019-02-12T15:52:45.918Z,9.20
2019-02-12T15:55:14.542Z,9.17
2019-02-12T15:57:45.820Z,9.10
2019-02-12T16:00:20.024Z,9.08
2019-02-12T16:02:48.194Z,9.02
2019-02-12T16:05:16.795Z,8.99
2019-02-12T16:07:47.347Z,8.96
2019-02-12T16:10:19.677Z,8.91
2019-02-12T16:12:50.706Z,8.87
2019-02-12T16:15:21.905Z,8.79
2019-02-12T16:17:49.872Z,8.76
2019-02-12T16:20:18.426Z,8.75
2019-02-12T16:22:47.054Z,8.70
2019-02-12T16:25:15.713Z,8.66
2019-02-12T16:27:44.347Z,8.62
2019-02-12T16:30:18.096Z,8.55
2019-02-12T16:32:46.630Z,8.50
2019-02-12T16:35:18.584Z,8.44
2019-02-12T16:37:47.188Z,8.41
2019-02-12T16:40:16.984Z,8.36
2019-02-12T16:42:45.585Z,8.31
2019-02-12T16:45:19.908Z,8.28
2019-02-12T16:47:48.440Z,8.26
2019-02-12T16:50:16.861Z,8.23
2019-02-12T16:52:45.448Z,8.20
2019-02-12T16:55:14.011Z,8.23
2019-02-12T16:57:42.472Z,8.22
2019-02-12T17:00:13.686Z,8.24
2019-02-12T17:02:42.155Z,8.21
2019-02-12T17:05:12.362Z,8.19
2019-02-12T17:07:40.835Z,8.20
2019-02-12T17:10:10.459Z,8.19
2019-02-12T17:12:39.015Z,8.17
2019-02-12T17:15:12.032Z,8.15
2019-02-12T17:17:40.565Z,8.13
2019-02-12T17:20:12.082Z,8.10
2019-02-12T17:22:40.680Z,8.09
2019-02-12T17:25:10.508Z,8.11
2019-02-12T17:27:39.014Z,8.11
2019-02-12T17:30:18.361Z,8.03
2019-02-12T17:32:46.962Z,7.99
2019-02-12T17:35:15.478Z,7.92
2019-02-12T17:37:43.923Z,7.87
2019-02-12T17:40:19.310Z,7.80
2019-02-12T17:42:47.762Z,7.76
2019-02-12T17:45:17.345Z,7.69
2019-02-12T17:47:45.832Z,7.65
2019-02-12T17:50:15.136Z,7.61
2019-02-12T17:52:43.772Z,7.57
2019-02-12T17:55:12.683Z,7.54
2019-02-12T17:57:41.189Z,7.54
2019-02-12T18:00:33.875Z,7.56
2019-02-12T18:03:02.686Z,7.53
2019-02-12T18:05:31.168Z,7.48
2019-02-12T18:07:59.585Z,7.46
2019-02-12T18:10:28.100Z,7.46
2019-02-12T18:12:56.523Z,7.48
2019-02-12T18:15:25.155Z,7.45
2019-02-12T18:17:53.606Z,7.42
2019-02-12T18:20:26.516Z,7.37
2019-02-12T18:22:52.398Z,7.33
2019-02-12T18:25:20.892Z,7.30
2019-02-12T18:27:49.393Z,7.26
2019-02-12T18:30:18.465Z,7.23
2019-02-12T18:32:46.982Z,7.18
2019-02-12T18:35:15.544Z,7.15
2019-02-12T18:37:44.146Z,7.13
2019-02-12T18:40:14.875Z,7.09
2019-02-12T18:42:43.437Z,7.06
2019-02-12T18:45:19.769Z,7.04
2019-02-12T18:47:48.380Z,7.02
2019-02-12T18:50:16.935Z,6.99
2019-02-12T18:52:45.553Z,6.98
2019-02-12T18:55:15.308Z,6.98
2019-02-12T18:57:44.644Z,6.96
2019-02-12T19:00:16.238Z,6.96
2019-02-12T19:02:44.679Z,6.93
2019-02-12T19:05:13.295Z,6.89
2019-02-12T19:07:42.932Z,6.84
2019-02-12T19:10:13.996Z,6.81
2019-02-12T19:12:46.729Z,6.80
2019-02-12T19:15:19.182Z,6.75
2019-02-12T19:20:37.233Z,6.72
2019-02-12T19:23:06.616Z,6.68
2019-02-12T19:25:35.108Z,6.68
2019-02-12T19:28:03.681Z,6.65
2019-02-12T19:30:32.190Z,6.63
2019-02-12T19:33:00.845Z,6.61
2019-02-12T19:35:29.306Z,6.63
2019-02-12T19:37:57.771Z,6.57
2019-02-12T19:40:26.392Z,6.56
2019-02-12T19:42:54.810Z,6.54
2019-02-12T19:45:23.336Z,6.51
2019-02-12T19:47:51.915Z,6.52
2019-02-12T19:50:20.422Z,6.49
2019-02-12T19:52:48.940Z,6.46
2019-02-12T19:55:17.547Z,6.44
2019-02-12T19:57:46.050Z,6.43
2019-02-12T20:00:21.481Z,6.45
2019-02-12T20:02:50.910Z,6.42
2019-02-12T20:05:19.866Z,6.40
2019-02-12T20:07:48.284Z,6.38
2019-02-12T20:10:16.906Z,6.35
2019-02-12T20:12:45.482Z,6.34
2019-02-12T20:15:19.287Z,6.31
2019-02-12T20:17:47.706Z,6.30
2019-02-12T20:20:16.287Z,6.29
2019-02-12T20:22:44.777Z,6.28
2019-02-12T20:25:13.525Z,6.26
2019-02-12T20:27:42.020Z,6.23
2019-02-12T20:30:16.415Z,6.19
2019-02-12T20:32:44.969Z,6.17
2019-02-12T20:35:16.140Z,6.15
2019-02-12T20:37:44.564Z,6.15
2019-02-12T20:40:14.367Z,6.13
2019-02-12T20:42:43.043Z,6.10
2019-02-12T20:45:15.547Z,6.09
2019-02-12T20:47:44.151Z,6.07
2019-02-12T20:50:17.651Z,6.07
2019-02-12T20:52:46.260Z,6.04
2019-02-12T20:55:14.686Z,6.03
2019-02-12T20:57:43.361Z,6.02
2019-02-12T21:00:20.091Z,6.02
2019-02-12T21:02:48.495Z,5.99
2019-02-12T21:05:17.314Z,5.98
2019-02-12T21:07:46.095Z,5.96
2019-02-12T21:10:23.175Z,5.95
2019-02-12T21:12:51.669Z,5.91
2019-02-12T21:18:00.053Z,5.87
2019-02-12T21:20:28.553Z,5.87
2019-02-12T21:22:57.662Z,5.85
2019-02-12T21:25:26.111Z,5.84
2019-02-12T21:27:54.651Z,5.81
2019-02-12T21:30:28.407Z,5.80
2019-02-12T21:32:57.030Z,5.78
2019-02-12T21:35:25.501Z,5.80
2019-02-12T21:37:54.175Z,5.77
2019-02-12T21:40:25.114Z,5.76
2019-02-12T21:42:53.587Z,5.75
2019-02-12T21:45:22.015Z,5.76
2019-02-12T21:47:51.011Z,5.75
2019-02-12T21:50:19.460Z,5.74
2019-02-12T21:52:48.161Z,5.74
2019-02-12T21:55:24.052Z,5.74
2019-02-12T21:57:52.573Z,5.74
2019-02-12T22:00:22.073Z,5.69
2019-02-12T22:02:50.570Z,5.69
2019-02-12T22:05:19.273Z,5.67
2019-02-12T22:07:47.770Z,5.63
2019-02-12T22:10:24.086Z,5.62
2019-02-12T22:12:52.501Z,5.62
2019-02-12T22:15:21.157Z,5.62
2019-02-12T22:17:49.588Z,5.61
2019-02-12T22:20:19.602Z,5.63
2019-02-12T22:22:48.014Z,5.63
2019-02-12T22:25:16.499Z,5.62
2019-02-12T22:27:45.027Z,5.61
2019-02-12T22:30:26.365Z,5.61
2019-02-12T22:32:54.792Z,5.58
2019-02-12T22:35:23.259Z,5.55
2019-02-12T22:37:51.743Z,5.52
2019-02-12T22:40:20.206Z,5.51
2019-02-12T22:42:48.611Z,5.47
2019-02-12T22:45:21.472Z,5.45
2019-02-12T22:47:49.974Z,5.42
2019-02-12T22:50:18.529Z,5.41
2019-02-12T22:52:46.979Z,5.39
2019-02-12T22:55:15.579Z,5.38
2019-02-12T22:57:49.415Z,5.38
2019-02-12T23:00:48.953Z,5.35
2019-02-12T23:03:17.690Z,5.30
2019-02-12T23:05:46.150Z,5.24
2019-02-12T23:08:14.594Z,5.22
2019-02-12T23:10:43.152Z,5.18
2019-02-12T23:13:11.570Z,5.17
2019-02-12T23:15:40.024Z,5.16
2019-02-12T23:18:08.526Z,5.16
2019-02-12T23:20:36.994Z,5.15
2019-02-12T23:23:05.534Z,5.15
2019-02-12T23:25:33.937Z,5.15
2019-02-12T23:28:02.394Z,5.16
2019-02-12T23:30:30.833Z,5.18
2019-02-12T23:32:59.270Z,5.17
2019-02-12T23:35:27.695Z,5.16
2019-02-12T23:37:56.165Z,5.17
2019-02-12T23:40:24.592Z,5.18
2019-02-12T23:42:53.053Z,5.18
2019-02-12T23:45:21.563Z,5.18
2019-02-12T23:47:50.003Z,5.18
2019-02-12T23:50:18.504Z,5.16
2019-02-12T23:52:46.967Z,5.17
2019-02-12T23:55:15.386Z,5.13
2019-02-12T23:57:43.845Z,5.15
